sensor_id;sensor_type;location;lat;lon;timestamp;temperature;humidity
22680;DHT22;11507;44.858;10.374;2024-01-15T00:01:44;1.90;99.90
22680;DHT22;11507;44.858;10.374;2024-01-15T00:04:11;1.90;99.90
22680;DHT22;11507;44.858;10.374;2024-01-15T00:06:37;1.90;99.90
22680;DHT22;11507;44.858;10.374;2024-01-15T00:09:03;1.90;99.90
22680;DHT22;11507;44.858;10.374;2024-01-15T00:11:29;2.00;99.90
22680;DHT22;11507;44.858;10.374;2024-01-15T00:13:55;1.90;99.90
22680;DHT22;11507;44.858;10.374;2024-01-15T00:16:21;1.90;99.90
22680;DHT22;11507;44.858;10.374;2024-01-15T00:18:48;2.00;99.90
22680;DHT22;11507;44.858;10.374;2024-01-15T00:21:14;1.90;99.90
22680;DHT22;11507;44.858;10.374;2024-01-15T00:23:44;2.00;99.90
22680;DHT22;11507;44.858;10.374;2024-01-15T00:26:10;1.90;99.90
22680;DHT22;11507;44.858;10.374;2024-01-15T00:28:37;1.90;99.90
22680;DHT22;11507;44.858;10.374;2024-01-15T00:31:05;1.90;99.90
22680;DHT22;11507;44.858;10.374;2024-01-15T00:33:31;1.90;99.90
22680;DHT22;11507;44.858;10.374;2024-01-15T00:35:57;1.90;99.90
22680;DHT22;11507;44.858;10.374;2024-01-15T00:38:24;1.90;99.90
22680;DHT22;11507;44.858;10.374;2024-01-15T00:40:50;2.00;99.90
22680;DHT22;11507;44.858;10.374;2024-01-15T00:43:16;1.90;99.90
22680;DHT22;11507;44.858;10.374;2024-01-15T00:45:45;2.00;99.90
22680;DHT22;11507;44.858;10.374;2024-01-15T00:48:11;2.00;99.90
22680;DHT22;11507;44.858;10.374;2024-01-15T00:50:37;2.00;99.90
22680;DHT22;11507;44.858;10.374;2024-01-15T00:53:04;2.00;99.90
22680;DHT22;11507;44.858;10.374;2024-01-15T00:55:30;2.00;99.90
22680;DHT22;11507;44.858;10.374;2024-01-15T00:57:56;2.00;99.90
22680;DHT22;11507;44.858;10.374;2024-01-15T01:00:22;2.00;99.90
22680;DHT22;11507;44.858;10.374;2024-01-15T01:02:48;2.00;99.90
22680;DHT22;11507;44.858;10.374;2024-01-15T01:05:14;2.00;99.90
22680;DHT22;11507;44.858;10.374;2024-01-15T01:07:40;2.00;99.90
22680;DHT22;11507;44.858;10.374;2024-01-15T01:10:06;2.00;99.90
22680;DHT22;11507;44.858;10.374;2024-01-15T01:12:32;2.00;99.90
22680;DHT22;11507;44.858;10.374;2024-01-15T01:14:58;2.00;99.90
22680;DHT22;11507;44.858;10.374;2024-01-15T01:17:25;2.00;99.90
22680;DHT22;11507;44.858;10.374;2024-01-15T01:19:51;1.90;99.90
22680;DHT22;11507;44.858;10.374;2024-01-15T01:22:17;1.90;99.90
22680;DHT22;11507;44.858;10.374;2024-01-15T01:24:43;2.00;99.90
22680;DHT22;11507;44.858;10.374;2024-01-15T01:27:09;2.00;99.90
22680;DHT22;11507;44.858;10.374;2024-01-15T01:29:35;2.00;99.90
22680;DHT22;11507;44.858;10.374;2024-01-15T01:32:01;2.00;99.90
22680;DHT22;11507;44.858;10.374;2024-01-15T01:34:27;2.00;99.90
22680;DHT22;11507;44.858;10.374;2024-01-15T01:36:53;2.00;99.90
22680;DHT22;11507;44.858;10.374;2024-01-15T01:39:19;2.00;99.90
22680;DHT22;11507;44.858;10.374;2024-01-15T01:41:45;2.00;99.90
22680;DHT22;11507;44.858;10.374;2024-01-15T01:44:11;1.90;99.90
22680;DHT22;11507;44.858;10.374;2024-01-15T01:46:38;1.90;99.90
22680;DHT22;11507;44.858;10.374;2024-01-15T01:49:09;1.90;99.90
22680;DHT22;11507;44.858;10.374;2024-01-15T01:51:35;1.90;99.90
22680;DHT22;11507;44.858;10.374;2024-01-15T01:54:04;1.90;99.90
22680;DHT22;11507;44.858;10.374;2024-01-15T01:56:31;2.00;99.90
22680;DHT22;11507;44.858;10.374;2024-01-15T01:58:57;2.00;99.90
22680;DHT22;11507;44.858;10.374;2024-01-15T02:01:24;2.00;99.90
22680;DHT22;11507;44.858;10.374;2024-01-15T02:03:50;1.90;99.90
22680;DHT22;11507;44.858;10.374;2024-01-15T02:06:16;1.90;99.90
22680;DHT22;11507;44.858;10.374;2024-01-15T02:08:43;2.00;99.90
22680;DHT22;11507;44.858;10.374;2024-01-15T02:11:10;2.00;99.90
22680;DHT22;11507;44.858;10.374;2024-01-15T02:13:38;2.00;99.90
22680;DHT22;11507;44.858;10.374;2024-01-15T02:16:04;2.00;99.90
22680;DHT22;11507;44.858;10.374;2024-01-15T02:18:40;2.00;99.90
22680;DHT22;11507;44.858;10.374;2024-01-15T02:21:07;2.00;99.90
22680;DHT22;11507;44.858;10.374;2024-01-15T02:23:33;2.00;99.90
22680;DHT22;11507;44.858;10.374;2024-01-15T02:26:00;2.00;99.90
22680;DHT22;11507;44.858;10.374;2024-01-15T02:28:27;2.00;99.90
22680;DHT22;11507;44.858;10.374;2024-01-15T02:30:53;2.00;99.90
22680;DHT22;11507;44.858;10.374;2024-01-15T02:33:19;2.00;99.90
22680;DHT22;11507;44.858;10.374;2024-01-15T02:35:45;2.00;99.90
22680;DHT22;11507;44.858;10.374;2024-01-15T02:38:12;2.00;99.90
22680;DHT22;11507;44.858;10.374;2024-01-15T02:40:38;2.00;99.90
22680;DHT22;11507;44.858;10.374;2024-01-15T02:43:05;2.00;99.90
22680;DHT22;11507;44.858;10.374;2024-01-15T02:45:30;2.10;99.90
22680;DHT22;11507;44.858;10.374;2024-01-15T02:47:57;2.00;99.90
22680;DHT22;11507;44.858;10.374;2024-01-15T02:50:22;2.00;99.90
22680;DHT22;11507;44.858;10.374;2024-01-15T02:52:49;2.10;99.90
22680;DHT22;11507;44.858;10.374;2024-01-15T02:55:15;2.10;99.90
22680;DHT22;11507;44.858;10.374;2024-01-15T02:57:41;2.10;99.90
22680;DHT22;11507;44.858;10.374;2024-01-15T03:00:07;2.10;99.90
22680;DHT22;11507;44.858;10.374;2024-01-15T03:02:36;2.10;99.90
22680;DHT22;11507;44.858;10.374;2024-01-15T03:05:06;2.10;99.90
22680;DHT22;11507;44.858;10.374;2024-01-15T03:07:33;2.10;99.90
22680;DHT22;11507;44.858;10.374;2024-01-15T03:09:59;2.10;99.90
22680;DHT22;11507;44.858;10.374;2024-01-15T03:12:26;2.10;99.90
22680;DHT22;11507;44.858;10.374;2024-01-15T03:14:52;2.10;99.90
22680;DHT22;11507;44.858;10.374;2024-01-15T03:17:18;2.10;99.90
22680;DHT22;11507;44.858;10.374;2024-01-15T03:19:44;2.10;99.90
22680;DHT22;11507;44.858;10.374;2024-01-15T03:22:11;2.10;99.90
22680;DHT22;11507;44.858;10.374;2024-01-15T03:24:37;2.00;99.90
22680;DHT22;11507;44.858;10.374;2024-01-15T03:27:03;2.10;99.90
22680;DHT22;11507;44.858;10.374;2024-01-15T03:29:29;2.00;99.90
22680;DHT22;11507;44.858;10.374;2024-01-15T03:31:55;2.00;99.90
22680;DHT22;11507;44.858;10.374;2024-01-15T03:34:21;2.00;99.90
22680;DHT22;11507;44.858;10.374;2024-01-15T03:36:48;2.10;99.90
22680;DHT22;11507;44.858;10.374;2024-01-15T03:39:13;2.10;99.90
22680;DHT22;11507;44.858;10.374;2024-01-15T03:41:39;2.00;99.90
22680;DHT22;11507;44.858;10.374;2024-01-15T03:44:06;2.00;99.90
22680;DHT22;11507;44.858;10.374;2024-01-15T03:46:32;2.00;99.90
22680;DHT22;11507;44.858;10.374;2024-01-15T03:48:58;2.00;99.90
22680;DHT22;11507;44.858;10.374;2024-01-15T03:51:24;2.00;99.90
22680;DHT22;11507;44.858;10.374;2024-01-15T03:53:51;2.00;99.90
22680;DHT22;11507;44.858;10.374;2024-01-15T03:56:20;2.00;99.90
22680;DHT22;11507;44.858;10.374;2024-01-15T03:58:46;1.90;99.90
22680;DHT22;11507;44.858;10.374;2024-01-15T04:01:12;1.90;99.90
22680;DHT22;11507;44.858;10.374;2024-01-15T04:03:38;1.90;99.90
22680;DHT22;11507;44.858;10.374;2024-01-15T04:06:04;1.90;99.90
22680;DHT22;11507;44.858;10.374;2024-01-15T04:08:30;1.90;99.90
22680;DHT22;11507;44.858;10.374;2024-01-15T04:10:56;1.90;99.90
22680;DHT22;11507;44.858;10.374;2024-01-15T04:13:23;1.90;99.90
22680;DHT22;11507;44.858;10.374;2024-01-15T04:15:49;1.80;99.90
22680;DHT22;11507;44.858;10.374;2024-01-15T04:18:16;1.80;99.90
22680;DHT22;11507;44.858;10.374;2024-01-15T04:20:45;1.80;99.90
22680;DHT22;11507;44.858;10.374;2024-01-15T04:23:12;1.80;99.90
22680;DHT22;11507;44.858;10.374;2024-01-15T04:25:38;1.80;99.90
22680;DHT22;11507;44.858;10.374;2024-01-15T04:28:09;1.90;99.90
22680;DHT22;11507;44.858;10.374;2024-01-15T04:30:36;1.80;99.90
22680;DHT22;11507;44.858;10.374;2024-01-15T04:33:03;1.90;99.90
22680;DHT22;11507;44.858;10.374;2024-01-15T04:35:30;1.80;99.90
22680;DHT22;11507;44.858;10.374;2024-01-15T04:37:57;1.80;99.90
22680;DHT22;11507;44.858;10.374;2024-01-15T04:40:25;1.80;99.90
22680;DHT22;11507;44.858;10.374;2024-01-15T04:42:54;1.80;99.90
22680;DHT22;11507;44.858;10.374;2024-01-15T04:45:20;1.80;99.90
22680;DHT22;11507;44.858;10.374;2024-01-15T04:47:49;1.80;99.90
22680;DHT22;11507;44.858;10.374;2024-01-15T04:50:15;1.80;99.90
22680;DHT22;11507;44.858;10.374;2024-01-15T04:52:41;1.70;99.90
22680;DHT22;11507;44.858;10.374;2024-01-15T04:55:07;1.70;99.90
22680;DHT22;11507;44.858;10.374;2024-01-15T04:57:33;1.70;99.90
22680;DHT22;11507;44.858;10.374;2024-01-15T04:59:59;1.70;99.90
22680;DHT22;11507;44.858;10.374;2024-01-15T05:02:25;1.70;99.90
22680;DHT22;11507;44.858;10.374;2024-01-15T05:04:52;1.60;99.90
22680;DHT22;11507;44.858;10.374;2024-01-15T05:07:18;1.60;99.90
22680;DHT22;11507;44.858;10.374;2024-01-15T05:09:44;1.60;99.90
22680;DHT22;11507;44.858;10.374;2024-01-15T05:12:10;1.50;99.90
22680;DHT22;11507;44.858;10.374;2024-01-15T05:14:37;1.50;99.90
22680;DHT22;11507;44.858;10.374;2024-01-15T05:17:03;1.50;99.90
22680;DHT22;11507;44.858;10.374;2024-01-15T05:19:29;1.50;99.90
22680;DHT22;11507;44.858;10.374;2024-01-15T05:21:55;1.50;99.90
22680;DHT22;11507;44.858;10.374;2024-01-15T05:24:21;1.50;99.90
22680;DHT22;11507;44.858;10.374;2024-01-15T05:26:48;1.50;99.90
22680;DHT22;11507;44.858;10.374;2024-01-15T05:29:14;1.50;99.90
22680;DHT22;11507;44.858;10.374;2024-01-15T05:31:41;1.40;99.90
22680;DHT22;11507;44.858;10.374;2024-01-15T05:34:07;1.40;99.90
22680;DHT22;11507;44.858;10.374;2024-01-15T05:36:33;1.40;99.90
22680;DHT22;11507;44.858;10.374;2024-01-15T05:38:59;1.40;99.90
22680;DHT22;11507;44.858;10.374;2024-01-15T05:41:26;1.40;99.90
22680;DHT22;11507;44.858;10.374;2024-01-15T05:43:52;1.30;99.90
22680;DHT22;11507;44.858;10.374;2024-01-15T05:46:18;1.30;99.90
22680;DHT22;11507;44.858;10.374;2024-01-15T05:48:44;1.30;99.90
22680;DHT22;11507;44.858;10.374;2024-01-15T05:51:10;1.30;99.90
22680;DHT22;11507;44.858;10.374;2024-01-15T05:53:36;1.40;99.90
22680;DHT22;11507;44.858;10.374;2024-01-15T05:56:04;1.30;99.90
22680;DHT22;11507;44.858;10.374;2024-01-15T05:58:30;1.30;99.90
22680;DHT22;11507;44.858;10.374;2024-01-15T06:00:57;1.30;99.90
22680;DHT22;11507;44.858;10.374;2024-01-15T06:03:23;1.30;99.90
22680;DHT22;11507;44.858;10.374;2024-01-15T06:05:49;1.40;99.90
22680;DHT22;11507;44.858;10.374;2024-01-15T06:08:15;1.40;99.90
22680;DHT22;11507;44.858;10.374;2024-01-15T06:10:41;1.40;99.90
22680;DHT22;11507;44.858;10.374;2024-01-15T06:13:07;1.40;99.90
22680;DHT22;11507;44.858;10.374;2024-01-15T06:15:33;1.40;99.90
22680;DHT22;11507;44.858;10.374;2024-01-15T06:17:59;1.40;99.90
22680;DHT22;11507;44.858;10.374;2024-01-15T06:20:26;1.40;99.90
22680;DHT22;11507;44.858;10.374;2024-01-15T06:22:52;1.30;99.90
22680;DHT22;11507;44.858;10.374;2024-01-15T06:25:18;1.30;99.90
22680;DHT22;11507;44.858;10.374;2024-01-15T06:27:44;1.30;99.90
22680;DHT22;11507;44.858;10.374;2024-01-15T06:30:11;1.30;99.90
22680;DHT22;11507;44.858;10.374;2024-01-15T06:32:37;1.40;99.90
22680;DHT22;11507;44.858;10.374;2024-01-15T06:35:04;1.40;99.90
22680;DHT22;11507;44.858;10.374;2024-01-15T06:37:30;1.40;99.90
22680;DHT22;11507;44.858;10.374;2024-01-15T06:39:58;1.40;99.90
22680;DHT22;11507;44.858;10.374;2024-01-15T06:42:25;1.50;99.90
22680;DHT22;11507;44.858;10.374;2024-01-15T06:44:51;1.40;99.90
22680;DHT22;11507;44.858;10.374;2024-01-15T06:47:17;1.40;99.90
22680;DHT22;11507;44.858;10.374;2024-01-15T06:49:43;1.40;99.90
22680;DHT22;11507;44.858;10.374;2024-01-15T06:52:09;1.40;99.90
22680;DHT22;11507;44.858;10.374;2024-01-15T06:54:35;1.40;99.90
22680;DHT22;11507;44.858;10.374;2024-01-15T06:57:02;1.40;99.90
22680;DHT22;11507;44.858;10.374;2024-01-15T06:59:28;1.40;99.90
22680;DHT22;11507;44.858;10.374;2024-01-15T07:01:54;1.40;99.90
22680;DHT22;11507;44.858;10.374;2024-01-15T07:04:21;1.40;99.90
22680;DHT22;11507;44.858;10.374;2024-01-15T07:06:47;1.50;99.90
22680;DHT22;11507;44.858;10.374;2024-01-15T07:09:14;1.50;99.90
22680;DHT22;11507;44.858;10.374;2024-01-15T07:11:44;1.50;99.90
22680;DHT22;11507;44.858;10.374;2024-01-15T07:14:12;1.50;99.90
22680;DHT22;11507;44.858;10.374;2024-01-15T07:16:38;1.60;99.90
22680;DHT22;11507;44.858;10.374;2024-01-15T07:19:05;1.60;99.90
22680;DHT22;11507;44.858;10.374;2024-01-15T07:21:32;1.70;99.90
22680;DHT22;11507;44.858;10.374;2024-01-15T07:23:58;1.70;99.90
22680;DHT22;11507;44.858;10.374;2024-01-15T07:26:24;1.70;99.90
22680;DHT22;11507;44.858;10.374;2024-01-15T07:28:51;1.80;99.90
22680;DHT22;11507;44.858;10.374;2024-01-15T07:31:17;1.80;99.90
22680;DHT22;11507;44.858;10.374;2024-01-15T07:33:44;1.80;99.90
22680;DHT22;11507;44.858;10.374;2024-01-15T07:36:10;1.90;99.90
22680;DHT22;11507;44.858;10.374;2024-01-15T07:38:36;1.90;99.90
22680;DHT22;11507;44.858;10.374;2024-01-15T07:41:03;2.00;99.90
22680;DHT22;11507;44.858;10.374;2024-01-15T07:43:29;2.00;99.90
22680;DHT22;11507;44.858;10.374;2024-01-15T07:45:55;2.10;99.90
22680;DHT22;11507;44.858;10.374;2024-01-15T07:48:21;2.10;99.90
22680;DHT22;11507;44.858;10.374;2024-01-15T07:50:48;2.20;99.90
22680;DHT22;11507;44.858;10.374;2024-01-15T07:53:14;2.20;99.90
22680;DHT22;11507;44.858;10.374;2024-01-15T07:55:40;2.30;99.90
22680;DHT22;11507;44.858;10.374;2024-01-15T07:58:06;2.30;99.90
22680;DHT22;11507;44.858;10.374;2024-01-15T08:00:33;2.30;99.90
22680;DHT22;11507;44.858;10.374;2024-01-15T08:02:59;2.40;99.90
22680;DHT22;11507;44.858;10.374;2024-01-15T08:05:25;2.40;99.90
22680;DHT22;11507;44.858;10.374;2024-01-15T08:07:51;2.50;99.90
22680;DHT22;11507;44.858;10.374;2024-01-15T08:10:17;2.60;99.90
22680;DHT22;11507;44.858;10.374;2024-01-15T08:12:43;2.60;99.90
22680;DHT22;11507;44.858;10.374;2024-01-15T08:15:10;2.60;99.90
22680;DHT22;11507;44.858;10.374;2024-01-15T08:17:36;2.60;99.90
22680;DHT22;11507;44.858;10.374;2024-01-15T08:20:02;2.70;99.90
22680;DHT22;11507;44.858;10.374;2024-01-15T08:22:28;2.70;99.90
22680;DHT22;11507;44.858;10.374;2024-01-15T08:24:54;2.70;99.90
22680;DHT22;11507;44.858;10.374;2024-01-15T08:27:21;2.80;99.90
22680;DHT22;11507;44.858;10.374;2024-01-15T08:29:46;2.80;99.90
22680;DHT22;11507;44.858;10.374;2024-01-15T08:32:13;2.80;99.90
22680;DHT22;11507;44.858;10.374;2024-01-15T08:34:41;2.80;99.90
22680;DHT22;11507;44.858;10.374;2024-01-15T08:37:08;2.80;99.90
22680;DHT22;11507;44.858;10.374;2024-01-15T08:39:33;2.80;99.90
22680;DHT22;11507;44.858;10.374;2024-01-15T08:41:59;2.90;99.90
22680;DHT22;11507;44.858;10.374;2024-01-15T08:44:25;3.00;99.90
22680;DHT22;11507;44.858;10.374;2024-01-15T08:46:51;3.00;99.90
22680;DHT22;11507;44.858;10.374;2024-01-15T08:49:17;3.10;99.90
22680;DHT22;11507;44.858;10.374;2024-01-15T08:51:43;3.20;99.90
22680;DHT22;11507;44.858;10.374;2024-01-15T08:54:09;3.20;99.90
22680;DHT22;11507;44.858;10.374;2024-01-15T08:56:35;3.30;99.90
22680;DHT22;11507;44.858;10.374;2024-01-15T08:59:01;3.30;99.90
22680;DHT22;11507;44.858;10.374;2024-01-15T09:01:27;3.40;99.90
22680;DHT22;11507;44.858;10.374;2024-01-15T09:03:53;3.40;99.90
22680;DHT22;11507;44.858;10.374;2024-01-15T09:06:19;3.50;99.90
22680;DHT22;11507;44.858;10.374;2024-01-15T09:08:46;3.60;99.90
22680;DHT22;11507;44.858;10.374;2024-01-15T09:11:12;3.70;99.90
22680;DHT22;11507;44.858;10.374;2024-01-15T09:13:38;3.70;99.90
22680;DHT22;11507;44.858;10.374;2024-01-15T09:16:04;3.90;99.90
22680;DHT22;11507;44.858;10.374;2024-01-15T09:18:30;3.90;99.90
22680;DHT22;11507;44.858;10.374;2024-01-15T09:20:56;4.00;99.90
22680;DHT22;11507;44.858;10.374;2024-01-15T09:23:22;4.20;99.90
22680;DHT22;11507;44.858;10.374;2024-01-15T09:25:47;4.20;99.90
22680;DHT22;11507;44.858;10.374;2024-01-15T09:28:14;4.20;99.90
22680;DHT22;11507;44.858;10.374;2024-01-15T09:30:40;4.30;99.90
22680;DHT22;11507;44.858;10.374;2024-01-15T09:33:06;4.30;99.90
22680;DHT22;11507;44.858;10.374;2024-01-15T09:35:32;4.30;99.90
22680;DHT22;11507;44.858;10.374;2024-01-15T09:37:58;4.30;99.90
22680;DHT22;11507;44.858;10.374;2024-01-15T09:40:24;4.40;99.90
22680;DHT22;11507;44.858;10.374;2024-01-15T09:42:52;4.40;99.90
22680;DHT22;11507;44.858;10.374;2024-01-15T09:45:18;4.30;99.90
22680;DHT22;11507;44.858;10.374;2024-01-15T09:47:44;4.40;99.90
22680;DHT22;11507;44.858;10.374;2024-01-15T09:50:10;4.50;99.90
22680;DHT22;11507;44.858;10.374;2024-01-15T09:52:36;4.60;99.90
22680;DHT22;11507;44.858;10.374;2024-01-15T09:55:02;4.80;99.90
22680;DHT22;11507;44.858;10.374;2024-01-15T09:57:29;5.00;99.90
22680;DHT22;11507;44.858;10.374;2024-01-15T09:59:55;5.00;99.90
22680;DHT22;11507;44.858;10.374;2024-01-15T10:02:22;5.10;99.90
22680;DHT22;11507;44.858;10.374;2024-01-15T10:04:48;5.20;99.90
22680;DHT22;11507;44.858;10.374;2024-01-15T10:07:15;5.40;99.90
22680;DHT22;11507;44.858;10.374;2024-01-15T10:09:42;5.40;99.90
22680;DHT22;11507;44.858;10.374;2024-01-15T10:12:09;5.50;99.90
22680;DHT22;11507;44.858;10.374;2024-01-15T10:14:35;5.90;99.90
22680;DHT22;11507;44.858;10.374;2024-01-15T10:17:03;6.50;99.90
22680;DHT22;11507;44.858;10.374;2024-01-15T10:19:37;7.30;99.90
22680;DHT22;11507;44.858;10.374;2024-01-15T10:22:03;8.30;99.90
22680;DHT22;11507;44.858;10.374;2024-01-15T10:24:29;8.90;99.90
22680;DHT22;11507;44.858;10.374;2024-01-15T10:27:05;9.50;99.90
22680;DHT22;11507;44.858;10.374;2024-01-15T10:29:32;9.80;99.90
22680;DHT22;11507;44.858;10.374;2024-01-15T10:31:58;10.00;99.90
22680;DHT22;11507;44.858;10.374;2024-01-15T10:34:24;10.40;99.90
22680;DHT22;11507;44.858;10.374;2024-01-15T10:36:50;10.50;99.90
22680;DHT22;11507;44.858;10.374;2024-01-15T10:39:21;10.80;99.90
22680;DHT22;11507;44.858;10.374;2024-01-15T10:41:47;11.10;99.90
22680;DHT22;11507;44.858;10.374;2024-01-15T10:44:13;11.40;99.90
22680;DHT22;11507;44.858;10.374;2024-01-15T10:46:39;11.80;99.90
22680;DHT22;11507;44.858;10.374;2024-01-15T10:49:05;12.10;99.90
22680;DHT22;11507;44.858;10.374;2024-01-15T10:51:32;12.60;99.90
22680;DHT22;11507;44.858;10.374;2024-01-15T10:53:59;12.80;99.90
22680;DHT22;11507;44.858;10.374;2024-01-15T10:56:25;13.30;99.90
22680;DHT22;11507;44.858;10.374;2024-01-15T10:58:53;13.60;99.50
22680;DHT22;11507;44.858;10.374;2024-01-15T11:01:20;13.60;99.90
22680;DHT22;11507;44.858;10.374;2024-01-15T11:03:46;14.00;99.90
22680;DHT22;11507;44.858;10.374;2024-01-15T11:06:16;14.30;97.50
22680;DHT22;11507;44.858;10.374;2024-01-15T11:08:43;14.30;97.10
22680;DHT22;11507;44.858;10.374;2024-01-15T11:11:09;14.60;96.10
22680;DHT22;11507;44.858;10.374;2024-01-15T11:16:05;15.20;94.00
22680;DHT22;11507;44.858;10.374;2024-01-15T11:18:36;15.30;95.10
22680;DHT22;11507;44.858;10.374;2024-01-15T11:23:51;15.90;93.60
22680;DHT22;11507;44.858;10.374;2024-01-15T11:28:54;16.00;90.80
22680;DHT22;11507;44.858;10.374;2024-01-15T11:31:20;15.80;92.00
22680;DHT22;11507;44.858;10.374;2024-01-15T11:33:49;16.10;92.30
22680;DHT22;11507;44.858;10.374;2024-01-15T11:36:15;16.30;90.30
22680;DHT22;11507;44.858;10.374;2024-01-15T11:38:41;16.20;90.60
22680;DHT22;11507;44.858;10.374;2024-01-15T11:41:16;16.50;91.40
22680;DHT22;11507;44.858;10.374;2024-01-15T11:43:42;16.80;89.70
22680;DHT22;11507;44.858;10.374;2024-01-15T11:46:11;17.10;87.10
22680;DHT22;11507;44.858;10.374;2024-01-15T11:48:42;17.40;90.40
22680;DHT22;11507;44.858;10.374;2024-01-15T11:51:10;17.00;87.10
22680;DHT22;11507;44.858;10.374;2024-01-15T11:53:40;17.10;86.50
22680;DHT22;11507;44.858;10.374;2024-01-15T11:56:11;17.30;85.70
22680;DHT22;11507;44.858;10.374;2024-01-15T11:58:39;17.80;84.30
22680;DHT22;11507;44.858;10.374;2024-01-15T12:01:05;18.10;82.20
22680;DHT22;11507;44.858;10.374;2024-01-15T12:03:32;18.60;82.50
22680;DHT22;11507;44.858;10.374;2024-01-15T12:05:59;18.60;79.30
22680;DHT22;11507;44.858;10.374;2024-01-15T12:08:25;19.00;84.30
22680;DHT22;11507;44.858;10.374;2024-01-15T12:10:52;19.90;78.30
22680;DHT22;11507;44.858;10.374;2024-01-15T12:13:19;20.10;75.40
22680;DHT22;11507;44.858;10.374;2024-01-15T12:15:46;20.60;71.30
22680;DHT22;11507;44.858;10.374;2024-01-15T12:18:12;20.50;70.80
22680;DHT22;11507;44.858;10.374;2024-01-15T12:20:40;20.90;70.30
22680;DHT22;11507;44.858;10.374;2024-01-15T12:23:06;21.10;68.30
22680;DHT22;11507;44.858;10.374;2024-01-15T12:25:32;21.40;69.70
22680;DHT22;11507;44.858;10.374;2024-01-15T12:27:58;21.70;68.20
22680;DHT22;11507;44.858;10.374;2024-01-15T12:30:28;22.30;68.90
22680;DHT22;11507;44.858;10.374;2024-01-15T12:32:54;22.70;65.90
22680;DHT22;11507;44.858;10.374;2024-01-15T12:35:21;23.30;66.30
22680;DHT22;11507;44.858;10.374;2024-01-15T12:37:47;23.40;59.60
22680;DHT22;11507;44.858;10.374;2024-01-15T12:40:13;23.60;59.50
22680;DHT22;11507;44.858;10.374;2024-01-15T12:42:44;23.60;58.00
22680;DHT22;11507;44.858;10.374;2024-01-15T12:45:10;23.90;60.40
22680;DHT22;11507;44.858;10.374;2024-01-15T12:47:37;24.20;57.60
22680;DHT22;11507;44.858;10.374;2024-01-15T12:50:06;24.30;57.50
22680;DHT22;11507;44.858;10.374;2024-01-15T12:52:33;24.30;55.30
22680;DHT22;11507;44.858;10.374;2024-01-15T12:54:59;24.10;55.90
22680;DHT22;11507;44.858;10.374;2024-01-15T12:57:25;24.50;57.10
22680;DHT22;11507;44.858;10.374;2024-01-15T12:59:51;24.80;54.40
22680;DHT22;11507;44.858;10.374;2024-01-15T13:02:18;25.00;54.00
22680;DHT22;11507;44.858;10.374;2024-01-15T13:04:44;25.10;54.50
22680;DHT22;11507;44.858;10.374;2024-01-15T13:07:10;25.20;55.40
22680;DHT22;11507;44.858;10.374;2024-01-15T13:09:36;25.80;53.70
22680;DHT22;11507;44.858;10.374;2024-01-15T13:12:02;25.70;53.20
22680;DHT22;11507;44.858;10.374;2024-01-15T13:14:28;25.60;53.30
22680;DHT22;11507;44.858;10.374;2024-01-15T13:16:54;26.10;53.10
22680;DHT22;11507;44.858;10.374;2024-01-15T13:19:21;26.30;51.10
22680;DHT22;11507;44.858;10.374;2024-01-15T13:21:48;26.30;48.20
22680;DHT22;11507;44.858;10.374;2024-01-15T13:24:14;25.30;48.60
22680;DHT22;11507;44.858;10.374;2024-01-15T13:26:40;24.40;51.90
22680;DHT22;11507;44.858;10.374;2024-01-15T13:29:06;24.50;53.20
22680;DHT22;11507;44.858;10.374;2024-01-15T13:31:32;24.60;51.80
22680;DHT22;11507;44.858;10.374;2024-01-15T13:33:59;24.80;50.30
22680;DHT22;11507;44.858;10.374;2024-01-15T13:36:25;24.60;49.90
22680;DHT22;11507;44.858;10.374;2024-01-15T13:38:52;24.20;53.00
22680;DHT22;11507;44.858;10.374;2024-01-15T13:41:22;24.60;51.80
22680;DHT22;11507;44.858;10.374;2024-01-15T13:43:53;25.20;53.30
22680;DHT22;11507;44.858;10.374;2024-01-15T13:46:23;25.80;51.30
22680;DHT22;11507;44.858;10.374;2024-01-15T13:48:50;26.30;50.70
22680;DHT22;11507;44.858;10.374;2024-01-15T13:51:15;26.50;50.60
22680;DHT22;11507;44.858;10.374;2024-01-15T13:53:41;26.50;49.50
22680;DHT22;11507;44.858;10.374;2024-01-15T13:56:07;26.60;48.00
22680;DHT22;11507;44.858;10.374;2024-01-15T13:58:35;26.80;47.20
22680;DHT22;11507;44.858;10.374;2024-01-15T14:01:01;26.40;47.30
22680;DHT22;11507;44.858;10.374;2024-01-15T14:03:30;26.60;48.70
22680;DHT22;11507;44.858;10.374;2024-01-15T14:05:55;26.50;48.20
22680;DHT22;11507;44.858;10.374;2024-01-15T14:08:21;26.70;47.90
22680;DHT22;11507;44.858;10.374;2024-01-15T14:10:47;26.00;46.30
22680;DHT22;11507;44.858;10.374;2024-01-15T14:13:13;24.70;48.30
22680;DHT22;11507;44.858;10.374;2024-01-15T14:15:39;23.40;49.90
22680;DHT22;11507;44.858;10.374;2024-01-15T14:18:05;21.80;51.50
22680;DHT22;11507;44.858;10.374;2024-01-15T14:20:31;20.30;54.10
22680;DHT22;11507;44.858;10.374;2024-01-15T14:22:58;19.00;56.90
22680;DHT22;11507;44.858;10.374;2024-01-15T14:25:24;17.70;59.90
22680;DHT22;11507;44.858;10.374;2024-01-15T14:27:50;16.80;64.30
22680;DHT22;11507;44.858;10.374;2024-01-15T14:30:16;16.10;66.50
22680;DHT22;11507;44.858;10.374;2024-01-15T14:32:42;15.50;69.60
22680;DHT22;11507;44.858;10.374;2024-01-15T14:35:09;15.10;71.90
22680;DHT22;11507;44.858;10.374;2024-01-15T14:37:39;14.40;75.00
22680;DHT22;11507;44.858;10.374;2024-01-15T14:40:05;14.00;78.00
22680;DHT22;11507;44.858;10.374;2024-01-15T14:42:33;13.50;79.50
22680;DHT22;11507;44.858;10.374;2024-01-15T14:44:59;13.20;81.70
22680;DHT22;11507;44.858;10.374;2024-01-15T14:47:26;12.90;83.80
22680;DHT22;11507;44.858;10.374;2024-01-15T14:49:53;12.60;87.00
22680;DHT22;11507;44.858;10.374;2024-01-15T14:52:19;12.30;90.00
22680;DHT22;11507;44.858;10.374;2024-01-15T14:54:45;12.10;91.60
22680;DHT22;11507;44.858;10.374;2024-01-15T14:57:13;11.90;92.50
22680;DHT22;11507;44.858;10.374;2024-01-15T14:59:39;11.70;93.50
22680;DHT22;11507;44.858;10.374;2024-01-15T15:02:06;11.50;95.20
22680;DHT22;11507;44.858;10.374;2024-01-15T15:04:32;11.20;96.70
22680;DHT22;11507;44.858;10.374;2024-01-15T15:06:58;11.00;97.70
22680;DHT22;11507;44.858;10.374;2024-01-15T15:09:24;10.80;99.10
22680;DHT22;11507;44.858;10.374;2024-01-15T15:11:50;10.50;99.80
22680;DHT22;11507;44.858;10.374;2024-01-15T15:14:17;10.30;99.90
22680;DHT22;11507;44.858;10.374;2024-01-15T15:16:43;10.10;99.90
22680;DHT22;11507;44.858;10.374;2024-01-15T15:19:12;9.90;99.90
22680;DHT22;11507;44.858;10.374;2024-01-15T15:21:38;9.60;99.90
22680;DHT22;11507;44.858;10.374;2024-01-15T15:24:04;9.40;99.90
22680;DHT22;11507;44.858;10.374;2024-01-15T15:26:30;9.10;99.90
22680;DHT22;11507;44.858;10.374;2024-01-15T15:28:56;9.00;99.90
22680;DHT22;11507;44.858;10.374;2024-01-15T15:31:22;8.90;99.90